createdAt,value
2018-11-02T00:00:46.710Z,5.57
2018-11-02T00:03:16.007Z,13.10
2018-11-02T00:05:45.299Z,6.53
2018-11-02T00:08:14.441Z,5.13
2018-11-02T00:10:43.610Z,4.63
2018-11-02T00:16:04.107Z,6.13
2018-11-02T00:18:33.246Z,4.80
2018-11-02T00:21:02.388Z,4.70
2018-11-02T00:23:32.545Z,5.13
2018-11-02T00:26:02.087Z,7.20
2018-11-02T00:28:31.322Z,6.80
2018-11-02T00:31:00.770Z,7.93
2018-11-02T00:33:30.058Z,5.03
2018-11-02T00:35:59.318Z,6.00
2018-11-02T00:38:28.770Z,5.90
2018-11-02T00:40:58.082Z,7.40
2018-11-02T00:43:27.372Z,4.90
2018-11-02T00:45:56.965Z,11.60
2018-11-02T00:48:26.331Z,6.43
2018-11-02T00:50:55.592Z,4.73
2018-11-02T00:53:25.185Z,5.40
2018-11-02T00:55:54.536Z,5.80
2018-11-02T00:58:23.588Z,6.00
2018-11-02T01:00:52.901Z,14.80
2018-11-02T01:03:22.097Z,8.00
2018-11-02T01:05:51.888Z,6.70
2018-11-02T01:08:21.697Z,10.80
2018-11-02T01:10:50.953Z,4.83
2018-11-02T01:13:20.701Z,7.00
2018-11-02T01:15:50.207Z,5.20
2018-11-02T01:18:19.322Z,6.90
2018-11-02T01:20:48.801Z,8.40
2018-11-02T01:23:18.581Z,6.57
2018-11-02T01:25:47.812Z,6.10
2018-11-02T01:28:17.132Z,9.57
2018-11-02T01:30:46.718Z,9.77
2018-11-02T01:33:16.204Z,8.23
2018-11-02T01:35:45.423Z,7.40
2018-11-02T01:38:14.806Z,9.20
2018-11-02T01:40:43.908Z,7.27
2018-11-02T01:43:13.127Z,8.60
2018-11-02T01:45:42.522Z,9.93
2018-11-02T01:48:11.820Z,5.57
2018-11-02T01:50:41.122Z,5.83
2018-11-02T01:53:11.354Z,9.43
2018-11-02T01:55:40.522Z,10.30
2018-11-02T01:58:09.748Z,6.27
2018-11-02T02:00:39.285Z,6.93
2018-11-02T02:03:08.564Z,10.30
2018-11-02T02:05:38.016Z,8.60
2018-11-02T02:08:07.777Z,10.00
2018-11-02T02:10:37.586Z,8.33
2018-11-02T02:13:07.049Z,9.20
2018-11-02T02:15:36.256Z,10.90
2018-11-02T02:18:05.665Z,7.73
2018-11-02T02:20:35.517Z,13.20
2018-11-02T02:23:05.089Z,7.80
2018-11-02T02:25:34.826Z,9.20
2018-11-02T02:28:03.978Z,9.97
2018-11-02T02:30:33.986Z,9.63
2018-11-02T02:33:03.936Z,7.10
2018-11-02T02:35:33.201Z,7.77
2018-11-02T02:38:02.939Z,9.57
2018-11-02T02:40:32.136Z,12.60
2018-11-02T02:43:01.228Z,16.83
2018-11-02T02:45:30.605Z,8.33
2018-11-02T02:47:59.734Z,9.07
2018-11-02T02:50:29.313Z,8.80
2018-11-02T02:52:58.778Z,9.10
2018-11-02T02:55:28.237Z,10.60
2018-11-02T02:57:57.499Z,15.13
2018-11-02T03:00:26.949Z,7.10
2018-11-02T03:02:56.097Z,11.70
2018-11-02T03:05:25.195Z,7.27
2018-11-02T03:07:55.119Z,7.63
2018-11-02T03:10:24.328Z,7.87
2018-11-02T03:12:53.357Z,9.63
2018-11-02T03:15:22.756Z,7.87
2018-11-02T03:17:51.870Z,8.50
2018-11-02T03:20:21.693Z,9.63
2018-11-02T03:22:51.268Z,8.67
2018-11-02T03:25:20.395Z,8.43
2018-11-02T03:27:49.529Z,10.43
2018-11-02T03:30:19.222Z,7.77
2018-11-02T03:32:48.470Z,10.07
2018-11-02T03:35:17.672Z,7.97
2018-11-02T03:37:47.021Z,6.93
2018-11-02T03:40:16.121Z,6.50
2018-11-02T03:42:45.331Z,13.53
2018-11-02T03:45:14.805Z,6.80
2018-11-02T03:47:43.949Z,14.20
2018-11-02T03:50:13.081Z,8.67
2018-11-02T03:52:42.625Z,12.40
2018-11-02T03:55:11.726Z,9.03
2018-11-02T03:57:40.942Z,17.37
2018-11-02T04:00:11.187Z,14.30
2018-11-02T04:02:41.234Z,14.90
2018-11-02T04:05:11.299Z,15.47
2018-11-02T04:07:40.671Z,15.47
2018-11-02T04:10:10.829Z,9.73
2018-11-02T04:12:40.685Z,13.43
2018-11-02T04:15:10.176Z,10.50
2018-11-02T04:17:39.383Z,15.30
2018-11-02T04:20:09.513Z,8.40
2018-11-02T04:22:38.919Z,8.97
2018-11-02T04:25:08.193Z,10.47
2018-11-02T04:27:37.443Z,9.40
2018-11-02T04:30:07.783Z,9.03
2018-11-02T04:32:37.006Z,12.00
2018-11-02T04:35:07.219Z,8.50
2018-11-02T04:37:37.317Z,9.00
2018-11-02T04:40:07.221Z,8.80
2018-11-02T04:42:36.917Z,10.70
2018-11-02T04:45:06.795Z,15.27
2018-11-02T04:47:35.924Z,12.57
2018-11-02T04:50:06.241Z,11.83
2018-11-02T04:52:35.474Z,10.00
2018-11-02T04:55:06.131Z,11.13
2018-11-02T04:57:35.973Z,11.33
2018-11-02T05:00:07.191Z,15.33
2018-11-02T05:02:36.373Z,9.13
2018-11-02T05:05:06.010Z,17.50
2018-11-02T05:07:35.692Z,11.70
2018-11-02T05:10:06.289Z,10.10
2018-11-02T05:12:35.503Z,9.67
2018-11-02T05:15:04.929Z,11.53
2018-11-02T05:17:34.251Z,10.13
2018-11-02T05:20:03.555Z,10.30
2018-11-02T05:22:32.830Z,11.90
2018-11-02T05:25:01.965Z,10.87
2018-11-02T05:27:31.186Z,11.33
2018-11-02T05:30:00.514Z,10.27
2018-11-02T05:32:30.389Z,16.57
2018-11-02T05:34:59.566Z,10.10
2018-11-02T05:37:29.953Z,11.10
2018-11-02T05:39:59.226Z,11.57
2018-11-02T05:42:28.344Z,9.77
2018-11-02T05:44:57.969Z,10.57
2018-11-02T05:47:27.197Z,11.20
2018-11-02T05:49:56.421Z,12.77
2018-11-02T05:52:25.757Z,11.37
2018-11-02T05:54:55.056Z,8.97
2018-11-02T05:57:24.238Z,11.73
2018-11-02T05:59:53.537Z,13.50
2018-11-02T06:02:22.858Z,11.73
2018-11-02T06:04:52.035Z,11.20
2018-11-02T06:07:21.688Z,11.13
2018-11-02T06:09:50.821Z,16.17
2018-11-02T06:12:20.537Z,14.90
2018-11-02T06:14:50.151Z,13.87
2018-11-02T06:17:19.533Z,13.50
2018-11-02T06:19:48.765Z,13.43
2018-11-02T06:22:19.097Z,15.20
2018-11-02T06:24:48.329Z,12.70
2018-11-02T06:27:17.589Z,11.00
2018-11-02T06:29:46.995Z,11.70
2018-11-02T06:32:17.865Z,12.33
2018-11-02T06:34:47.113Z,14.00
2018-11-02T06:37:16.641Z,13.57
2018-11-02T06:39:45.849Z,15.10
2018-11-02T06:42:15.038Z,13.70
2018-11-02T06:44:45.062Z,15.40
2018-11-02T06:47:14.227Z,16.23
2018-11-02T06:49:43.565Z,14.13
2018-11-02T06:52:13.348Z,12.77
2018-11-02T06:54:42.898Z,10.77
2018-11-02T06:57:12.101Z,14.83
2018-11-02T06:59:41.578Z,16.20
2018-11-02T07:02:10.437Z,12.27
2018-11-02T07:04:40.239Z,15.13
2018-11-02T07:07:09.849Z,14.30
2018-11-02T07:09:38.741Z,17.30
2018-11-02T07:12:07.819Z,16.63
2018-11-02T07:14:37.140Z,13.20
2018-11-02T07:17:06.429Z,15.17
2018-11-02T07:19:35.429Z,11.30
2018-11-02T07:22:05.044Z,15.10
2018-11-02T07:24:34.229Z,10.43
2018-11-02T07:27:03.305Z,11.63
2018-11-02T07:29:32.475Z,16.50
2018-11-02T07:32:01.469Z,14.27
2018-11-02T07:34:30.591Z,15.83
2018-11-02T07:36:59.923Z,16.73
2018-11-02T07:39:32.163Z,10.83
2018-11-02T07:42:02.097Z,15.00
2018-11-02T07:44:34.621Z,13.33
2018-11-02T07:47:04.070Z,11.90
2018-11-02T07:49:33.110Z,18.73
2018-11-02T07:52:02.100Z,21.53
2018-11-02T07:54:31.277Z,16.37
2018-11-02T07:57:00.279Z,17.90
2018-11-02T07:59:29.308Z,19.53
2018-11-02T08:01:58.527Z,19.33
2018-11-02T08:04:27.478Z,19.07
2018-11-02T08:06:56.480Z,19.17
2018-11-02T08:09:26.220Z,19.77
2018-11-02T08:11:55.281Z,16.30
2018-11-02T08:14:24.308Z,17.13
2018-11-02T08:16:53.623Z,16.70
2018-11-02T08:19:22.594Z,21.10
2018-11-02T08:21:51.602Z,17.93
2018-11-02T08:24:20.868Z,20.20
2018-11-02T08:26:49.897Z,19.27
2018-11-02T08:29:18.899Z,18.60
2018-11-02T08:31:48.092Z,20.83
2018-11-02T08:34:17.170Z,22.57
2018-11-02T08:36:46.169Z,18.73
2018-11-02T08:39:15.361Z,18.87
2018-11-02T08:41:44.401Z,21.90
2018-11-02T08:44:13.401Z,14.67
2018-11-02T08:46:42.676Z,16.23
2018-11-02T08:49:11.724Z,17.03
2018-11-02T08:51:40.706Z,12.67
2018-11-02T08:54:10.264Z,17.07
2018-11-02T08:56:39.250Z,19.30
2018-11-02T08:59:08.344Z,19.70
2018-11-02T09:01:37.858Z,21.33
2018-11-02T09:04:06.958Z,17.10
2018-11-02T09:06:36.036Z,16.83
2018-11-02T09:09:07.039Z,18.47
2018-11-02T09:11:36.274Z,18.90
2018-11-02T09:14:05.508Z,13.70
2018-11-02T09:16:34.894Z,14.47
2018-11-02T09:19:04.376Z,18.50
2018-11-02T09:21:33.438Z,19.20
2018-11-02T09:24:02.725Z,15.43
2018-11-02T09:26:31.810Z,13.97
2018-11-02T09:29:00.967Z,15.23
2018-11-02T09:31:31.172Z,12.17
2018-11-02T09:34:00.179Z,11.70
2018-11-02T09:36:29.698Z,11.70
2018-11-02T09:38:59.378Z,14.90
2018-11-02T09:41:29.228Z,11.33
2018-11-02T09:43:58.387Z,10.40
2018-11-02T09:46:28.010Z,12.10
2018-11-02T09:48:57.130Z,11.13
2018-11-02T09:51:28.162Z,12.43
2018-11-02T09:53:57.501Z,23.57
2018-11-02T09:56:26.713Z,15.23
2018-11-02T09:58:55.802Z,13.97
2018-11-02T10:01:25.052Z,15.07
2018-11-02T10:03:54.250Z,13.53
2018-11-02T10:06:23.897Z,12.97
2018-11-02T10:08:53.578Z,11.73
2018-11-02T10:11:22.756Z,10.43
2018-11-02T10:13:51.869Z,13.90
2018-11-02T10:16:21.076Z,13.53
2018-11-02T10:18:50.302Z,13.20
2018-11-02T10:21:19.528Z,11.57
2018-11-02T10:23:49.036Z,12.20
2018-11-02T10:26:18.286Z,13.67
2018-11-02T10:28:47.510Z,14.43
2018-11-02T10:31:17.445Z,11.40
2018-11-02T10:33:46.676Z,17.53
2018-11-02T10:36:15.817Z,9.83
2018-11-02T10:38:45.468Z,11.67
2018-11-02T10:41:17.836Z,10.87
2018-11-02T10:43:47.452Z,13.80
2018-11-02T10:46:16.586Z,12.60
2018-11-02T10:48:45.710Z,11.60
2018-11-02T10:51:15.145Z,11.20
2018-11-02T10:53:44.272Z,12.03
2018-11-02T10:56:13.361Z,8.87
2018-11-02T10:58:42.650Z,15.13
2018-11-02T11:01:17.112Z,8.90
2018-11-02T11:03:46.469Z,11.50
2018-11-02T11:06:15.556Z,8.80
2018-11-02T11:08:44.708Z,9.23
2018-11-02T11:11:14.350Z,8.40
2018-11-02T11:13:43.828Z,15.17
2018-11-02T11:16:12.762Z,9.87
2018-11-02T11:18:42.129Z,10.70
2018-11-02T11:21:11.220Z,12.50
2018-11-02T11:23:40.285Z,15.13
2018-11-02T11:26:09.850Z,9.43
2018-11-02T11:28:38.969Z,7.60
2018-11-02T11:31:08.002Z,8.87
2018-11-02T11:33:37.451Z,13.60
2018-11-02T11:36:06.561Z,10.63
2018-11-02T11:38:35.734Z,11.10
2018-11-02T11:41:05.351Z,11.67
2018-11-02T11:43:34.445Z,10.87
2018-11-02T11:46:03.670Z,13.67
2018-11-02T11:48:32.932Z,11.13
2018-11-02T11:51:01.986Z,10.23
2018-11-02T11:53:31.066Z,9.93
2018-11-02T11:56:00.525Z,12.20
2018-11-02T11:58:29.597Z,11.20
2018-11-02T12:00:58.717Z,11.37
2018-11-02T12:03:28.114Z,10.37
2018-11-02T12:05:57.242Z,8.90
2018-11-02T12:08:26.434Z,12.03
2018-11-02T12:10:56.028Z,16.33
2018-11-02T12:13:25.142Z,10.50
2018-11-02T12:15:54.226Z,11.90
2018-11-02T12:18:23.605Z,10.87
2018-11-02T12:20:52.789Z,8.27
2018-11-02T12:23:22.622Z,11.93
2018-11-02T12:25:52.120Z,14.13
2018-11-02T12:28:21.392Z,10.57
2018-11-02T12:30:50.396Z,14.07
2018-11-02T12:33:19.707Z,12.10
2018-11-02T12:35:48.782Z,9.97
2018-11-02T12:38:17.937Z,7.73
2018-11-02T12:40:47.306Z,8.03
2018-11-02T12:43:16.493Z,9.27
2018-11-02T12:45:45.602Z,6.73
2018-11-02T12:48:14.993Z,7.40
2018-11-02T12:50:44.011Z,7.37
2018-11-02T12:53:13.084Z,8.40
2018-11-02T12:55:42.551Z,12.70
2018-11-02T12:58:11.570Z,9.50
2018-11-02T13:00:40.650Z,7.70
2018-11-02T13:03:09.852Z,8.73
2018-11-02T13:05:38.948Z,11.43
2018-11-02T13:08:07.666Z,6.50
2018-11-02T13:10:37.164Z,6.63
2018-11-02T13:13:06.672Z,7.30
2018-11-02T13:15:35.755Z,5.63
2018-11-02T13:18:05.304Z,6.53
2018-11-02T13:20:34.394Z,4.60
2018-11-02T13:23:03.418Z,8.30
2018-11-02T13:25:32.686Z,4.17
2018-11-02T13:28:01.762Z,6.27
2018-11-02T13:30:30.960Z,5.97
2018-11-02T13:33:00.454Z,5.10
2018-11-02T13:35:29.570Z,6.60
2018-11-02T13:37:58.644Z,5.57
2018-11-02T13:40:27.988Z,3.50
2018-11-02T13:42:57.401Z,3.60
2018-11-02T13:45:27.999Z,4.60
2018-11-02T13:47:59.206Z,3.50
2018-11-02T13:50:28.737Z,4.90
2018-11-02T13:52:58.284Z,3.93
2018-11-02T13:55:28.570Z,4.53
2018-11-02T13:57:59.320Z,3.00
2018-11-02T14:00:28.572Z,4.20
2018-11-02T14:02:57.927Z,4.13
2018-11-02T14:05:26.982Z,4.10
2018-11-02T14:07:56.031Z,3.37
2018-11-02T14:10:25.321Z,10.03
2018-11-02T14:12:54.398Z,3.50
2018-11-02T14:15:23.474Z,3.30
2018-11-02T14:17:53.078Z,3.20
2018-11-02T14:20:22.199Z,2.60
2018-11-02T14:22:51.262Z,4.30
2018-11-02T14:25:20.677Z,6.33
2018-11-02T14:27:49.816Z,6.70
2018-11-02T14:30:19.070Z,3.97
2018-11-02T14:32:49.180Z,5.10
2018-11-02T14:35:18.246Z,4.83
2018-11-02T14:37:47.290Z,3.30
2018-11-02T14:40:16.775Z,3.27
2018-11-02T14:42:45.832Z,6.83
2018-11-02T14:45:15.920Z,5.07
2018-11-02T14:47:46.224Z,5.60
2018-11-02T14:50:15.401Z,4.73
2018-11-02T14:52:44.482Z,5.30
2018-11-02T14:55:13.804Z,3.70
2018-11-02T14:57:42.903Z,3.27
2018-11-02T15:00:12.468Z,4.43
2018-11-02T15:02:42.500Z,3.80
2018-11-02T15:05:12.901Z,4.90
2018-11-02T15:07:43.064Z,5.00
2018-11-02T15:10:12.148Z,6.77
2018-11-02T15:12:41.253Z,8.30
2018-11-02T15:15:10.960Z,8.80
2018-11-02T15:17:40.310Z,12.10
2018-11-02T15:20:11.368Z,8.70
2018-11-02T15:22:40.801Z,11.03
2018-11-02T15:25:10.059Z,6.20
2018-11-02T15:27:39.153Z,4.70
2018-11-02T15:30:10.453Z,7.77
2018-11-02T15:32:39.533Z,8.60
2018-11-02T15:35:08.984Z,11.07
2018-11-02T15:37:38.664Z,5.40
2018-11-02T15:40:08.606Z,5.83
2018-11-02T15:42:37.686Z,5.17
2018-11-02T15:45:09.323Z,4.43
2018-11-02T15:47:38.409Z,6.63
2018-11-02T15:50:08.742Z,7.30
2018-11-02T15:52:38.486Z,6.00
2018-11-02T15:55:08.824Z,4.73
2018-11-02T15:57:38.210Z,5.10
2018-11-02T16:00:10.606Z,5.70
2018-11-02T16:02:39.640Z,4.87
2018-11-02T16:05:09.180Z,5.97
2018-11-02T16:07:39.479Z,7.00
2018-11-02T16:10:09.638Z,6.00
2018-11-02T16:12:38.816Z,6.60
2018-11-02T16:15:08.935Z,10.07
2018-11-02T16:17:38.080Z,8.97
2018-11-02T16:20:09.070Z,6.43
2018-11-02T16:22:38.339Z,6.33
2018-11-02T16:25:07.532Z,7.53
2018-11-02T16:27:36.743Z,7.33
2018-11-02T16:30:06.284Z,7.23
2018-11-02T16:32:35.340Z,7.07
2018-11-02T16:35:04.614Z,6.53
2018-11-02T16:37:34.140Z,6.20
2018-11-02T16:40:03.330Z,8.77
2018-11-02T16:42:32.448Z,6.67
2018-11-02T16:45:02.067Z,6.13
2018-11-02T16:47:31.126Z,7.87
2018-11-02T16:50:00.228Z,8.70
2018-11-02T16:52:29.627Z,6.90
2018-11-02T16:54:58.743Z,8.07
2018-11-02T16:57:27.924Z,7.73
2018-11-02T16:59:57.301Z,7.83
2018-11-02T17:02:26.925Z,6.33
2018-11-02T17:04:55.954Z,6.30
2018-11-02T17:07:25.311Z,4.23
2018-11-02T17:09:54.399Z,6.30
2018-11-02T17:12:23.496Z,7.17
2018-11-02T17:14:52.935Z,6.23
2018-11-02T17:17:22.101Z,5.13
2018-11-02T17:19:51.210Z,5.40
2018-11-02T17:22:20.481Z,8.00
2018-11-02T17:24:49.559Z,4.83
2018-11-02T17:27:18.733Z,5.23
2018-11-02T17:29:48.093Z,5.67
2018-11-02T17:32:17.221Z,4.80
2018-11-02T17:34:46.329Z,5.77
2018-11-02T17:37:15.615Z,9.40
2018-11-02T17:39:44.741Z,8.97
2018-11-02T17:42:13.889Z,6.60
2018-11-02T17:44:43.236Z,9.17
2018-11-02T17:47:12.392Z,6.60
2018-11-02T17:49:41.493Z,6.40
2018-11-02T17:52:10.749Z,9.10
2018-11-02T17:54:39.829Z,6.70
2018-11-02T17:57:08.988Z,8.90
2018-11-02T17:59:38.218Z,12.13
2018-11-02T18:02:07.334Z,8.00
2018-11-02T18:04:36.422Z,12.90
2018-11-02T18:07:06.130Z,8.97
2018-11-02T18:09:35.354Z,13.03
2018-11-02T18:12:04.452Z,11.33
2018-11-02T18:14:33.893Z,11.00
2018-11-02T18:17:03.034Z,11.20
2018-11-02T18:19:32.124Z,12.93
2018-11-02T18:22:01.377Z,11.50
2018-11-02T18:24:30.469Z,11.80
2018-11-02T18:26:59.566Z,13.73
2018-11-02T18:29:28.942Z,21.30
2018-11-02T18:31:58.170Z,17.60
2018-11-02T18:34:27.305Z,11.40
2018-11-02T18:36:56.855Z,15.20
2018-11-02T18:39:26.039Z,16.07
2018-11-02T18:41:55.160Z,18.10
2018-11-02T18:44:24.522Z,14.90
2018-11-02T18:46:53.652Z,15.77
2018-11-02T18:49:22.741Z,18.80
2018-11-02T18:51:52.013Z,13.60
2018-11-02T18:54:21.076Z,17.20
2018-11-02T18:56:50.221Z,14.47
2018-11-02T18:59:19.453Z,14.43
2018-11-02T19:01:48.525Z,13.57
2018-11-02T19:04:17.676Z,17.50
2018-11-02T19:06:46.961Z,15.50
2018-11-02T19:09:16.045Z,16.77
2018-11-02T19:11:45.211Z,20.67
2018-11-02T19:14:14.473Z,24.77
2018-11-02T19:16:43.627Z,17.90
2018-11-02T19:19:12.764Z,17.33
2018-11-02T19:21:42.140Z,16.70
2018-11-02T19:24:11.358Z,16.73
2018-11-02T19:26:40.516Z,23.13
2018-11-02T19:29:09.792Z,18.70
2018-11-02T19:31:38.923Z,14.33
2018-11-02T19:34:08.248Z,14.67
2018-11-02T19:36:37.721Z,14.93
2018-11-02T19:39:09.762Z,14.83
2018-11-02T19:41:39.276Z,15.87
2018-11-02T19:44:09.263Z,12.17
2018-11-02T19:46:38.424Z,15.33
2018-11-02T19:49:07.983Z,14.47
2018-11-02T19:51:37.211Z,16.30
2018-11-02T19:54:09.988Z,18.40
2018-11-02T19:56:40.161Z,15.53
2018-11-02T19:59:09.321Z,18.53
2018-11-02T20:01:39.300Z,15.87
2018-11-02T20:04:08.515Z,15.47
2018-11-02T20:06:37.634Z,16.30
2018-11-02T20:09:10.029Z,15.23
2018-11-02T20:11:39.144Z,12.17
2018-11-02T20:14:08.267Z,21.10
2018-11-02T20:16:38.517Z,15.13
2018-11-02T20:19:07.840Z,18.00
2018-11-02T20:21:37.225Z,18.53
2018-11-02T20:24:06.735Z,15.70
2018-11-02T20:26:35.969Z,15.13
2018-11-02T20:29:05.230Z,16.20
2018-11-02T20:31:34.703Z,12.40
2018-11-02T20:34:03.933Z,12.50
2018-11-02T20:36:33.149Z,15.17
2018-11-02T20:39:02.712Z,14.87
2018-11-02T20:41:31.687Z,18.27
2018-11-02T20:44:00.801Z,13.47
2018-11-02T20:46:38.754Z,16.50
2018-11-02T20:49:07.912Z,16.83
2018-11-02T20:51:37.020Z,17.57
2018-11-02T20:54:06.391Z,14.30
2018-11-02T20:56:35.568Z,15.27
2018-11-02T20:59:04.697Z,15.50
2018-11-02T21:01:34.384Z,14.27
2018-11-02T21:04:03.502Z,18.70
2018-11-02T21:06:32.635Z,18.83
2018-11-02T21:09:01.994Z,17.00
2018-11-02T21:11:31.033Z,18.47
2018-11-02T21:14:00.218Z,14.83
2018-11-02T21:16:29.467Z,18.30
2018-11-02T21:18:58.608Z,14.83
2018-11-02T21:21:27.787Z,15.00
2018-11-02T21:23:57.564Z,16.00
